createdAt,value
2019-02-15T00:00:40.306Z,101209.42
2019-02-15T00:03:07.768Z,101206.70
2019-02-15T00:05:36.071Z,101214.97
2019-02-15T00:08:03.622Z,101219.09
2019-02-15T00:10:31.048Z,101216.25
2019-02-15T00:12:58.506Z,101214.19
2019-02-15T00:15:25.993Z,101211.77
2019-02-15T00:18:08.335Z,101212.59
2019-02-15T00:20:44.318Z,101213.27
2019-02-15T00:23:11.738Z,101208.55
2019-02-15T00:25:39.182Z,101211.05
2019-02-15T00:28:06.657Z,101208.17
2019-02-15T00:30:34.147Z,101201.77
2019-02-15T00:33:01.595Z,101203.58
2019-02-15T00:35:29.096Z,101211.16
2019-02-15T00:37:56.516Z,101203.41
2019-02-15T00:40:24.004Z,101207.61
2019-02-15T00:42:51.664Z,101207.67
2019-02-15T00:45:19.096Z,101210.23
2019-02-15T00:47:48.885Z,101201.44
2019-02-15T00:50:17.872Z,101202.71
2019-02-15T00:52:45.332Z,101195.10
2019-02-15T00:55:16.594Z,101196.20
2019-02-15T00:57:46.882Z,101198.14
2019-02-15T01:00:16.839Z,101196.86
2019-02-15T01:02:46.809Z,101201.59
2019-02-15T01:05:14.247Z,101198.09
2019-02-15T01:08:00.410Z,101193.63
2019-02-15T01:10:37.758Z,101190.08
2019-02-15T01:13:05.195Z,101184.54
2019-02-15T01:15:32.641Z,101184.30
2019-02-15T01:18:00.132Z,101186.33
2019-02-15T01:20:27.576Z,101188.23
2019-02-15T01:22:55.881Z,101180.16
2019-02-15T01:25:23.329Z,101180.03
2019-02-15T01:27:53.271Z,101187.80
2019-02-15T01:30:26.197Z,101179.11
2019-02-15T01:32:56.111Z,101171.80
2019-02-15T01:35:24.706Z,101178.33
2019-02-15T01:37:57.351Z,101168.86
2019-02-15T01:40:43.566Z,101165.37
2019-02-15T01:43:25.928Z,101163.27
2019-02-15T01:45:53.730Z,101157.62
2019-02-15T01:48:21.213Z,101149.74
2019-02-15T01:50:48.690Z,101158.66
2019-02-15T01:53:16.132Z,101152.89
2019-02-15T01:55:43.596Z,101146.31
2019-02-15T01:58:11.030Z,101151.55
2019-02-15T02:00:38.490Z,101145.65
2019-02-15T02:03:06.036Z,101140.16
2019-02-15T02:05:33.463Z,101138.80
2019-02-15T02:08:00.931Z,101133.46
2019-02-15T02:10:28.422Z,101135.63
2019-02-15T02:12:55.883Z,101135.13
2019-02-15T02:15:23.674Z,101134.76
2019-02-15T02:17:51.117Z,101134.16
2019-02-15T02:20:19.405Z,101126.09
2019-02-15T02:22:46.881Z,101120.28
2019-02-15T02:25:14.344Z,101122.78
2019-02-15T02:27:41.800Z,101121.91
2019-02-15T02:30:09.269Z,101120.98
2019-02-15T02:32:36.748Z,101123.04
2019-02-15T02:35:04.200Z,101118.56
2019-02-15T02:37:31.655Z,101124.61
2019-02-15T02:39:59.160Z,101118.77
2019-02-15T02:42:26.607Z,101116.61
2019-02-15T02:44:54.093Z,101119.75
2019-02-15T02:47:21.535Z,101114.65
2019-02-15T02:49:49.008Z,101113.19
2019-02-15T02:52:16.474Z,101120.72
2019-02-15T02:54:43.936Z,101116.00
2019-02-15T02:57:11.374Z,101116.02
2019-02-15T02:59:38.825Z,101117.22
2019-02-15T03:02:06.310Z,101115.14
2019-02-15T03:04:33.776Z,101113.06
2019-02-15T03:07:01.239Z,101112.59
2019-02-15T03:09:28.678Z,101116.91
2019-02-15T03:11:56.142Z,101116.28
2019-02-15T03:14:24.571Z,101114.25
2019-02-15T03:16:52.034Z,101103.70
2019-02-15T03:19:19.465Z,101106.52
2019-02-15T03:21:46.907Z,101108.06
2019-02-15T03:24:14.380Z,101109.21
2019-02-15T03:26:41.821Z,101104.06
2019-02-15T03:29:09.272Z,101102.69
2019-02-15T03:31:36.796Z,101100.66
2019-02-15T03:34:04.248Z,101099.16
2019-02-15T03:36:36.653Z,101095.02
2019-02-15T03:39:14.032Z,101091.48
2019-02-15T03:41:41.492Z,101086.55
2019-02-15T03:44:08.952Z,101091.08
2019-02-15T03:46:36.386Z,101085.81
2019-02-15T03:49:03.846Z,101087.20
2019-02-15T03:51:31.313Z,101087.13
2019-02-15T03:53:58.784Z,101090.16
2019-02-15T03:56:26.206Z,101087.47
2019-02-15T03:58:53.638Z,101084.70
2019-02-15T04:01:21.088Z,101083.58
2019-02-15T04:03:48.513Z,101088.34
2019-02-15T04:06:15.951Z,101091.76
2019-02-15T04:08:43.408Z,101077.21
2019-02-15T04:11:10.875Z,101074.80
2019-02-15T04:13:38.374Z,101078.67
2019-02-15T04:16:05.820Z,101079.89
2019-02-15T04:18:33.247Z,101079.41
2019-02-15T04:21:00.729Z,101084.37
2019-02-15T04:23:28.192Z,101082.49
2019-02-15T04:25:55.928Z,101073.84
2019-02-15T04:28:23.411Z,101070.51
2019-02-15T04:30:50.875Z,101071.27
2019-02-15T04:33:18.335Z,101071.88
2019-02-15T04:35:45.772Z,101071.37
2019-02-15T04:38:13.229Z,101071.59
2019-02-15T04:40:40.674Z,101075.57
2019-02-15T04:43:08.144Z,101072.17
2019-02-15T04:45:35.573Z,101079.41
2019-02-15T04:48:03.065Z,101076.86
2019-02-15T04:50:30.513Z,101078.50
2019-02-15T04:52:57.979Z,101076.95
2019-02-15T04:55:26.471Z,101081.22
2019-02-15T04:57:53.959Z,101078.45
2019-02-15T05:00:21.398Z,101082.28
2019-02-15T05:02:48.823Z,101079.11
2019-02-15T05:05:16.308Z,101081.53
2019-02-15T05:07:43.793Z,101084.26
2019-02-15T05:10:11.264Z,101080.75
2019-02-15T05:12:38.797Z,101082.01
2019-02-15T05:15:06.957Z,101083.33
2019-02-15T05:17:34.419Z,101079.71
2019-02-15T05:20:01.863Z,101079.69
2019-02-15T05:22:29.324Z,101085.61
2019-02-15T05:24:57.022Z,101076.59
2019-02-15T05:27:24.502Z,101082.45
2019-02-15T05:29:51.951Z,101080.81
2019-02-15T05:32:19.412Z,101075.80
2019-02-15T05:34:47.768Z,101076.67
2019-02-15T05:37:15.213Z,101080.08
2019-02-15T05:39:42.644Z,101078.69
2019-02-15T05:42:10.101Z,101077.41
2019-02-15T05:44:37.562Z,101072.45
2019-02-15T05:47:05.039Z,101073.19
2019-02-15T05:49:32.476Z,101074.70
2019-02-15T05:51:59.934Z,101077.37
2019-02-15T05:54:27.721Z,101076.75
2019-02-15T05:56:55.194Z,101075.52
2019-02-15T05:59:22.623Z,101078.02
2019-02-15T06:01:50.105Z,101083.22
2019-02-15T06:04:17.585Z,101071.77
2019-02-15T06:06:45.043Z,101078.50
2019-02-15T06:09:12.497Z,101081.55
2019-02-15T06:11:39.953Z,101085.05
2019-02-15T06:14:07.368Z,101080.20
2019-02-15T06:16:34.887Z,101078.78
2019-02-15T06:19:02.337Z,101080.93
2019-02-15T06:21:29.785Z,101073.48
2019-02-15T06:23:58.176Z,101071.50
2019-02-15T06:26:25.665Z,101082.44
2019-02-15T06:28:53.079Z,101080.78
2019-02-15T06:31:20.580Z,101077.52
2019-02-15T06:33:48.096Z,101074.63
2019-02-15T06:36:15.519Z,101079.50
2019-02-15T06:38:42.943Z,101077.47
2019-02-15T06:41:12.330Z,101079.15
2019-02-15T06:43:37.909Z,101080.50
2019-02-15T06:46:06.275Z,101081.47
2019-02-15T06:48:33.700Z,101082.92
2019-02-15T06:51:01.196Z,101083.73
2019-02-15T06:53:28.762Z,101078.84
2019-02-15T06:55:56.206Z,101082.36
2019-02-15T06:58:23.668Z,101085.96
2019-02-15T07:01:09.085Z,101087.14
2019-02-15T07:03:37.330Z,101092.47
2019-02-15T07:06:04.769Z,101092.69
2019-02-15T07:08:32.234Z,101090.05
2019-02-15T07:10:59.664Z,101099.44
2019-02-15T07:13:27.082Z,101098.26
2019-02-15T07:15:54.570Z,101099.62
2019-02-15T07:18:22.001Z,101093.97
2019-02-15T07:20:49.470Z,101095.91
2019-02-15T07:23:16.910Z,101096.42
2019-02-15T07:25:44.390Z,101098.34
2019-02-15T07:28:11.829Z,101100.63
2019-02-15T07:30:39.316Z,101090.59
2019-02-15T07:33:06.802Z,101092.22
2019-02-15T07:35:34.243Z,101094.81
2019-02-15T07:38:01.677Z,101094.04
2019-02-15T07:40:29.521Z,101090.46
2019-02-15T07:42:57.944Z,101100.30
2019-02-15T07:45:25.466Z,101087.44
2019-02-15T07:47:52.912Z,101089.64
2019-02-15T07:50:20.380Z,101090.41
2019-02-15T07:52:47.853Z,101090.47
2019-02-15T07:55:15.300Z,101086.94
2019-02-15T07:57:42.742Z,101088.92
2019-02-15T08:00:13.043Z,101088.64
2019-02-15T08:02:40.540Z,101091.02
2019-02-15T08:05:08.014Z,101081.70
2019-02-15T08:07:35.458Z,101081.54
2019-02-15T08:10:02.926Z,101084.73
2019-02-15T08:12:31.398Z,101087.23
2019-02-15T08:14:58.874Z,101083.02
2019-02-15T08:17:26.351Z,101078.70
2019-02-15T08:19:53.808Z,101077.58
2019-02-15T08:22:22.728Z,101074.52
2019-02-15T08:24:48.755Z,101075.05
2019-02-15T08:27:16.220Z,101075.30
2019-02-15T08:29:43.687Z,101076.09
2019-02-15T08:32:11.163Z,101068.53
2019-02-15T08:34:38.648Z,101063.64
2019-02-15T08:37:06.076Z,101061.67
2019-02-15T08:39:33.542Z,101063.11
2019-02-15T08:42:03.897Z,101062.61
2019-02-15T08:44:28.515Z,101064.54
2019-02-15T08:46:55.959Z,101063.95
2019-02-15T08:49:23.392Z,101061.98
2019-02-15T08:51:50.830Z,101062.83
2019-02-15T08:54:18.353Z,101069.00
2019-02-15T08:56:45.779Z,101054.82
2019-02-15T08:59:13.230Z,101055.97
2019-02-15T09:01:40.685Z,101062.70
2019-02-15T09:04:08.114Z,101058.71
2019-02-15T09:06:35.563Z,101049.33
2019-02-15T09:09:03.017Z,101054.58
2019-02-15T09:11:31.477Z,101046.98
2019-02-15T09:13:58.924Z,101044.89
2019-02-15T09:16:26.455Z,101055.95
2019-02-15T09:18:53.917Z,101054.97
2019-02-15T09:21:21.405Z,101052.58
2019-02-15T09:23:48.906Z,101054.39
2019-02-15T09:26:18.240Z,101048.74
2019-02-15T09:28:44.609Z,101049.55
2019-02-15T09:31:12.041Z,101050.39
2019-02-15T09:33:39.548Z,101043.70
2019-02-15T09:36:07.018Z,101037.90
2019-02-15T09:38:34.438Z,101031.41
2019-02-15T09:41:02.032Z,101036.35
2019-02-15T09:43:29.465Z,101037.32
2019-02-15T09:45:56.908Z,101036.27
2019-02-15T09:48:24.384Z,101035.23
2019-02-15T09:50:51.858Z,101029.84
2019-02-15T09:53:19.305Z,101032.94
2019-02-15T09:55:46.784Z,101027.44
2019-02-15T09:58:14.274Z,101032.45
2019-02-15T10:00:41.734Z,101024.88
2019-02-15T10:03:09.237Z,101036.68
2019-02-15T10:05:36.675Z,101033.89
2019-02-15T10:08:04.145Z,101028.98
2019-02-15T10:10:32.623Z,101026.55
2019-02-15T10:13:00.097Z,101024.71
2019-02-15T10:15:27.581Z,101024.59
2019-02-15T10:17:55.036Z,101018.27
2019-02-15T10:20:22.524Z,101021.98
2019-02-15T10:22:49.985Z,101015.16
2019-02-15T10:25:17.436Z,101020.88
2019-02-15T10:27:44.888Z,101017.84
2019-02-15T10:30:12.349Z,101010.14
2019-02-15T10:32:39.841Z,101013.16
2019-02-15T10:35:07.329Z,101006.55
2019-02-15T10:37:34.851Z,101001.88
2019-02-15T10:40:03.144Z,101000.63
2019-02-15T10:42:30.588Z,100998.24
2019-02-15T10:44:58.039Z,101002.90
2019-02-15T10:47:25.560Z,101000.95
2019-02-15T10:49:52.963Z,100994.36
2019-02-15T10:52:20.408Z,100990.08
2019-02-15T10:54:47.877Z,100996.89
2019-02-15T10:57:15.339Z,100995.03
2019-02-15T10:59:42.807Z,100983.98
2019-02-15T11:02:10.282Z,100997.20
2019-02-15T11:04:37.752Z,100991.80
2019-02-15T11:07:05.256Z,100997.43
2019-02-15T11:09:33.759Z,100997.52
2019-02-15T11:12:01.207Z,100997.98
2019-02-15T11:14:28.679Z,100990.05
2019-02-15T11:16:56.151Z,100993.58
2019-02-15T11:19:23.622Z,100992.53
2019-02-15T11:21:51.068Z,100990.42
2019-02-15T11:24:18.550Z,101000.36
2019-02-15T11:26:45.995Z,100985.50
2019-02-15T11:29:13.439Z,100987.61
2019-02-15T11:31:40.903Z,100989.09
2019-02-15T11:34:08.374Z,100980.08
2019-02-15T11:36:35.836Z,100978.42
2019-02-15T11:39:04.232Z,100984.41
2019-02-15T11:41:31.694Z,100973.14
2019-02-15T11:43:59.127Z,100972.73
2019-02-15T11:46:26.592Z,100975.88
2019-02-15T11:48:54.031Z,100968.27
2019-02-15T11:51:21.499Z,100969.14
2019-02-15T11:53:49.757Z,100970.08
2019-02-15T11:56:17.225Z,100962.77
2019-02-15T11:58:44.716Z,100965.44
2019-02-15T12:01:12.148Z,100956.91
2019-02-15T12:03:39.608Z,100959.55
2019-02-15T12:06:07.077Z,100954.48
2019-02-15T12:08:35.302Z,100957.15
2019-02-15T12:11:02.767Z,100945.48
2019-02-15T12:13:30.242Z,100949.37
2019-02-15T12:15:57.677Z,100941.80
2019-02-15T12:18:25.121Z,100938.58
2019-02-15T12:20:52.584Z,100941.00
2019-02-15T12:23:20.060Z,100948.44
2019-02-15T12:25:47.555Z,100937.05
2019-02-15T12:28:16.013Z,100934.05
2019-02-15T12:30:43.487Z,100929.95
2019-02-15T12:33:10.965Z,100930.38
2019-02-15T12:35:38.476Z,100924.81
2019-02-15T12:38:05.958Z,100923.37
2019-02-15T12:40:33.400Z,100919.55
2019-02-15T12:43:00.840Z,100918.09
2019-02-15T12:45:28.307Z,100917.02
2019-02-15T12:47:55.805Z,100913.28
2019-02-15T12:50:24.242Z,100910.59
2019-02-15T12:52:51.733Z,100905.10
2019-02-15T12:55:19.197Z,100900.56
2019-02-15T12:57:46.681Z,100896.36
2019-02-15T13:00:15.097Z,100888.80
2019-02-15T13:02:42.607Z,100884.05
2019-02-15T13:05:10.052Z,100885.17
2019-02-15T13:07:37.488Z,100880.94
2019-02-15T13:10:04.970Z,100876.63
2019-02-15T13:12:33.638Z,100868.50
2019-02-15T13:15:01.127Z,100876.64
2019-02-15T13:17:28.586Z,100873.56
2019-02-15T13:19:56.063Z,100873.63
2019-02-15T13:22:23.561Z,100860.77
2019-02-15T13:24:51.011Z,100860.58
2019-02-15T13:27:18.498Z,100856.67
2019-02-15T13:29:45.934Z,100850.39
2019-02-15T13:32:13.412Z,100848.30
2019-02-15T13:34:40.862Z,100836.63
2019-02-15T13:37:08.371Z,100842.37
2019-02-15T13:39:35.853Z,100835.05
2019-02-15T13:42:03.299Z,100827.66
2019-02-15T13:44:30.789Z,100824.17
2019-02-15T13:46:58.262Z,100823.26
2019-02-15T13:49:25.718Z,100818.39
2019-02-15T13:51:53.220Z,100812.28
2019-02-15T13:54:20.686Z,100818.05
2019-02-15T13:56:48.166Z,100812.94
2019-02-15T13:59:15.669Z,100805.37
2019-02-15T14:01:43.129Z,100808.33
2019-02-15T14:04:10.625Z,100801.25
2019-02-15T14:06:38.103Z,100799.13
2019-02-15T14:09:05.564Z,100797.45
2019-02-15T14:11:33.049Z,100794.75
2019-02-15T14:14:00.578Z,100794.88
2019-02-15T14:16:28.044Z,100787.10
2019-02-15T14:18:55.526Z,100782.84
2019-02-15T14:21:22.974Z,100783.31
2019-02-15T14:23:50.481Z,100790.91
2019-02-15T14:26:18.003Z,100781.23
2019-02-15T14:28:45.447Z,100776.18
2019-02-15T14:31:12.955Z,100776.13
2019-02-15T14:33:40.405Z,100783.23
2019-02-15T14:36:08.456Z,100779.36
2019-02-15T14:38:35.705Z,100773.35
2019-02-15T14:41:03.144Z,100763.09
2019-02-15T14:43:30.600Z,100763.37
2019-02-15T14:45:58.048Z,100762.23
2019-02-15T14:48:25.507Z,100760.99
2019-02-15T14:50:52.935Z,100752.87
2019-02-15T14:53:20.412Z,100761.41
2019-02-15T14:55:48.068Z,100758.57
2019-02-15T14:58:15.338Z,100759.02
2019-02-15T15:00:42.817Z,100748.20
2019-02-15T15:03:10.266Z,100750.60
2019-02-15T15:05:37.739Z,100748.77
2019-02-15T15:08:05.175Z,100744.13
2019-02-15T15:10:32.641Z,100743.72
2019-02-15T15:13:00.117Z,100738.14
2019-02-15T15:15:27.607Z,100737.19
2019-02-15T15:18:02.533Z,100734.16
2019-02-15T15:20:22.594Z,100730.59
2019-02-15T15:22:50.088Z,100733.41
2019-02-15T15:25:17.547Z,100731.19
2019-02-15T15:27:45.048Z,100729.53
2019-02-15T15:30:12.510Z,100724.67
2019-02-15T15:32:39.998Z,100721.00
2019-02-15T15:35:07.423Z,100725.78
2019-02-15T15:37:34.890Z,100724.52
2019-02-15T15:40:02.401Z,100720.33
2019-02-15T15:42:29.860Z,100719.38
2019-02-15T15:44:57.344Z,100714.56
2019-02-15T15:47:24.838Z,100713.61
2019-02-15T15:49:52.292Z,100713.25
2019-02-15T15:52:19.769Z,100705.92
2019-02-15T15:54:47.266Z,100704.93
2019-02-15T15:57:14.770Z,100705.44
2019-02-15T15:59:42.258Z,100706.01
2019-02-15T16:02:10.043Z,100707.38
2019-02-15T16:04:37.537Z,100696.47
2019-02-15T16:07:05.016Z,100695.28
2019-02-15T16:09:32.483Z,100692.05
2019-02-15T16:11:59.982Z,100690.33
2019-02-15T16:14:27.450Z,100685.67
2019-02-15T16:16:54.887Z,100688.41
2019-02-15T16:19:22.363Z,100687.64
2019-02-15T16:21:49.809Z,100679.27
2019-02-15T16:24:17.284Z,100688.27
2019-02-15T16:26:44.759Z,100680.35
2019-02-15T16:29:13.931Z,100678.47
2019-02-15T16:31:40.519Z,100675.86
2019-02-15T16:34:08.014Z,100675.25
2019-02-15T16:36:35.467Z,100669.91
2019-02-15T16:39:02.943Z,100681.48
2019-02-15T16:41:30.391Z,100671.27
2019-02-15T16:43:57.873Z,100671.13
2019-02-15T16:46:25.359Z,100675.85
2019-02-15T16:48:52.815Z,100677.37
2019-02-15T16:51:20.293Z,100678.59
2019-02-15T16:53:47.731Z,100684.27
2019-02-15T16:56:15.220Z,100683.18
2019-02-15T16:58:42.706Z,100678.84
2019-02-15T17:01:11.122Z,100686.02
2019-02-15T17:03:38.570Z,100693.77
2019-02-15T17:06:06.075Z,100688.34
2019-02-15T17:08:33.537Z,100691.51
2019-02-15T17:11:01.055Z,100690.66
2019-02-15T17:13:28.540Z,100697.77
2019-02-15T17:15:56.067Z,100689.19
2019-02-15T17:18:23.506Z,100686.38
2019-02-15T17:20:50.992Z,100685.05
2019-02-15T17:23:18.456Z,100680.83
2019-02-15T17:25:46.089Z,100683.03
2019-02-15T17:28:13.425Z,100679.34
2019-02-15T17:30:41.699Z,100676.17
2019-02-15T17:33:10.122Z,100671.84
2019-02-15T17:35:37.657Z,100671.88
2019-02-15T17:38:05.181Z,100674.95
2019-02-15T17:40:32.635Z,100672.55
2019-02-15T17:43:00.089Z,100674.81
2019-02-15T17:45:27.560Z,100671.55
2019-02-15T17:47:55.005Z,100667.16
2019-02-15T17:50:22.491Z,100665.84
2019-02-15T17:52:49.954Z,100661.80
2019-02-15T17:55:18.949Z,100655.64
2019-02-15T17:57:46.486Z,100657.08
2019-02-15T18:00:13.946Z,100656.96
2019-02-15T18:02:42.261Z,100650.39
2019-02-15T18:05:09.752Z,100648.81
2019-02-15T18:07:37.251Z,100655.06
2019-02-15T18:10:04.698Z,100647.33
2019-02-15T18:12:32.255Z,100642.53
2019-02-15T18:14:59.670Z,100645.09
2019-02-15T18:17:27.166Z,100647.12
2019-02-15T18:19:54.594Z,100642.81
2019-02-15T18:22:22.062Z,100644.16
2019-02-15T18:24:49.556Z,100646.48
2019-02-15T18:27:17.104Z,100644.68
2019-02-15T18:29:45.315Z,100643.61
2019-02-15T18:32:12.813Z,100640.57
2019-02-15T18:34:40.272Z,100636.50
2019-02-15T18:37:07.858Z,100639.37
2019-02-15T18:39:35.342Z,100639.97
2019-02-15T18:42:02.804Z,100643.52
2019-02-15T18:44:30.289Z,100635.59
2019-02-15T18:46:57.707Z,100632.19
2019-02-15T18:49:25.179Z,100639.27
2019-02-15T18:51:52.666Z,100636.03
2019-02-15T18:54:20.153Z,100627.21
2019-02-15T18:56:47.610Z,100626.92
2019-02-15T18:59:15.098Z,100628.39
2019-02-15T19:01:43.379Z,100619.31
2019-02-15T19:04:10.842Z,100622.34
2019-02-15T19:06:38.351Z,100616.34
2019-02-15T19:09:05.817Z,100616.27
2019-02-15T19:11:33.270Z,100618.77
2019-02-15T19:14:00.707Z,100617.23
2019-02-15T19:16:28.237Z,100607.86
2019-02-15T19:18:55.684Z,100613.89
2019-02-15T19:21:23.119Z,100615.38
2019-02-15T19:23:50.590Z,100609.92
2019-02-15T19:26:18.062Z,100607.44
2019-02-15T19:31:19.490Z,100604.67
2019-02-15T19:33:46.933Z,100610.28
2019-02-15T19:36:14.413Z,100594.62
2019-02-15T19:38:41.853Z,100600.31
2019-02-15T19:41:09.311Z,100596.79
2019-02-15T19:43:36.896Z,100605.25
2019-02-15T19:46:04.393Z,100602.92
2019-02-15T19:48:32.664Z,100598.97
2019-02-15T19:51:00.223Z,100596.46
2019-02-15T19:53:27.680Z,100592.27
2019-02-15T19:55:55.189Z,100594.14
2019-02-15T19:58:22.666Z,100591.67
2019-02-15T20:00:50.096Z,100590.03
2019-02-15T20:03:17.582Z,100590.03
2019-02-15T20:05:45.045Z,100586.27
2019-02-15T20:08:12.480Z,100588.56
2019-02-15T20:10:39.963Z,100584.83
2019-02-15T20:13:07.438Z,100587.78
2019-02-15T20:15:34.898Z,100586.64
2019-02-15T20:18:02.358Z,100580.80
2019-02-15T20:20:29.836Z,100584.90
2019-02-15T20:22:57.321Z,100579.34
2019-02-15T20:25:24.802Z,100570.92
2019-02-15T20:27:52.302Z,100577.98
2019-02-15T20:30:20.652Z,100579.06
2019-02-15T20:32:48.121Z,100576.55
2019-02-15T20:35:15.547Z,100573.23
2019-02-15T20:37:43.098Z,100573.97
2019-02-15T20:40:10.565Z,100572.63
2019-02-15T20:42:38.002Z,100575.03
2019-02-15T20:45:05.489Z,100572.69
2019-02-15T20:47:32.954Z,100571.64
2019-02-15T20:50:00.434Z,100557.59
2019-02-15T20:52:27.880Z,100559.23
2019-02-15T20:54:55.347Z,100561.50
2019-02-15T20:57:22.830Z,100570.34
2019-02-15T20:59:50.295Z,100573.08
2019-02-15T21:02:17.745Z,100566.98
2019-02-15T21:04:45.811Z,100575.64
2019-02-15T21:07:13.315Z,100579.04
2019-02-15T21:09:40.748Z,100576.11
2019-02-15T21:12:08.207Z,100574.80
2019-02-15T21:14:35.655Z,100570.68
2019-02-15T21:17:03.104Z,100578.56
2019-02-15T21:19:30.574Z,100577.33
2019-02-15T21:21:58.009Z,100573.30
2019-02-15T21:24:25.554Z,100578.10
2019-02-15T21:26:52.953Z,100570.14
2019-02-15T21:29:21.508Z,100571.17
2019-02-15T21:31:49.069Z,100566.05
2019-02-15T21:34:16.522Z,100569.89
2019-02-15T21:36:43.985Z,100560.76
2019-02-15T21:39:11.438Z,100572.32
2019-02-15T21:41:38.932Z,100571.48
2019-02-15T21:44:06.432Z,100577.71
2019-02-15T21:46:33.891Z,100574.36
2019-02-15T21:49:01.333Z,100569.25
2019-02-15T21:51:30.289Z,100574.58
2019-02-15T21:53:57.819Z,100573.50
2019-02-15T21:56:25.279Z,100570.68
2019-02-15T21:58:52.753Z,100575.64
2019-02-15T22:01:20.203Z,100572.88
2019-02-15T22:03:47.621Z,100570.00
2019-02-15T22:06:15.110Z,100570.90
2019-02-15T22:08:42.570Z,100572.37
2019-02-15T22:11:10.012Z,100569.86
2019-02-15T22:13:38.233Z,100565.38
2019-02-15T22:16:05.703Z,100561.58
2019-02-15T22:18:33.169Z,100560.94
2019-02-15T22:21:00.694Z,100561.42
2019-02-15T22:23:28.142Z,100558.38
2019-02-15T22:25:55.620Z,100557.23
2019-02-15T22:28:23.070Z,100558.41
2019-02-15T22:30:50.550Z,100557.73
2019-02-15T22:33:18.005Z,100564.78
2019-02-15T22:35:45.470Z,100559.44
2019-02-15T22:38:12.963Z,100555.50
2019-02-15T22:40:40.451Z,100550.05
2019-02-15T22:43:09.744Z,100549.00
2019-02-15T22:45:37.185Z,100540.80
2019-02-15T22:48:04.666Z,100542.59
2019-02-15T22:50:36.059Z,100546.95
2019-02-15T22:52:59.590Z,100549.15
2019-02-15T22:55:27.049Z,100552.81
2019-02-15T22:57:54.525Z,100547.71
2019-02-15T23:00:24.392Z,100543.23
2019-02-15T23:02:53.010Z,100545.27
2019-02-15T23:05:20.570Z,100547.58
2019-02-15T23:07:48.412Z,100549.55
2019-02-15T23:10:15.888Z,100538.13
2019-02-15T23:12:43.355Z,100534.53
2019-02-15T23:15:10.807Z,100533.33
2019-02-15T23:17:38.289Z,100530.81
2019-02-15T23:20:05.740Z,100528.06
2019-02-15T23:22:33.213Z,100524.69
2019-02-15T23:25:00.669Z,100517.98
2019-02-15T23:27:28.125Z,100512.45
2019-02-15T23:29:55.589Z,100516.22
2019-02-15T23:32:23.065Z,100509.23
2019-02-15T23:34:50.508Z,100514.31
2019-02-15T23:37:18.884Z,100508.09
2019-02-15T23:39:46.354Z,100512.86
2019-02-15T23:42:13.818Z,100515.58
2019-02-15T23:44:41.261Z,100517.28
2019-02-15T23:47:08.705Z,100512.34
2019-02-15T23:49:36.138Z,100511.05
2019-02-15T23:52:03.652Z,100513.16
2019-02-15T23:54:31.105Z,100514.23
2019-02-15T23:56:58.562Z,100515.47
2019-02-15T23:59:25.997Z,100515.53
